Time;durP1;ratioP1;P1;durP2;ratioP2;P2;SDS_P1;SDS_P2;PMS_P1;PMS_P2;Temp;Humidity;BMP_temperature;BMP_pressure;BME280_temperature;BME280_humidity;BME280_pressure;Samples;Min_cycle;Max_cycle;Signal;HPM_P1;HPM_P2
2021/03/11 00:00:41;;;;;;;17.67;11.10;;;26.30;1664.00;;;;;;4974874;28;20043;-71
2021/03/11 00:03:07;;;;;;;15.95;11.27;;;26.20;1689.60;;;;;;4974308;28;20023;-72
2021/03/11 00:05:34;;;;;;;17.08;11.23;;;26.30;1664.00;;;;;;4962036;28;20041;-71
2021/03/11 00:08:00;;;;;;;20.40;11.60;;;26.30;1689.60;;;;;;4972574;28;20070;-72
2021/03/11 00:10:26;;;;;;;18.15;11.77;;;26.30;1664.00;;;;;;4971682;28;20035;-71
2021/03/11 00:12:52;;;;;;;21.80;11.85;;;26.30;1664.00;;;;;;4971683;28;20019;-72
2021/03/11 00:15:21;;;;;;;19.95;12.65;;;26.30;1664.00;;;;;;4965668;28;20054;-72
2021/03/11 00:17:47;;;;;;;18.50;11.95;;;26.30;1689.60;;;;;;4974338;28;20046;-71
2021/03/11 00:20:15;;;;;;;17.23;11.50;;;26.20;1715.20;;;;;;4974428;28;20035;-70
2021/03/11 00:22:41;;;;;;;19.58;12.07;;;26.30;1689.60;;;;;;4970465;28;20093;-73
2021/03/11 00:25:10;;;;;;;16.92;11.40;;;26.20;1664.00;;;;;;4973480;28;20109;-72
2021/03/11 00:27:36;;;;;;;18.00;11.27;;;26.20;1689.60;;;;;;4971890;28;20392;-71
2021/03/11 00:30:04;;;;;;;19.15;12.10;;;26.20;1689.60;;;;;;4968370;28;20077;-72
2021/03/11 00:32:29;;;;;;;28.20;11.88;;;26.20;1689.60;;;;;;4973959;28;20046;-72
2021/03/11 00:34:55;;;;;;;24.00;11.43;;;26.20;1689.60;;;;;;4973769;28;20504;-71
2021/03/11 00:37:21;;;;;;;18.45;11.65;;;26.10;1689.60;;;;;;4963189;28;20027;-72
2021/03/11 00:39:47;;;;;;;17.70;11.45;;;26.10;1715.20;;;;;;4971100;28;20035;-71
2021/03/11 00:42:12;;;;;;;17.35;10.50;;;26.10;1689.60;;;;;;4973743;28;20033;-72
2021/03/11 00:44:38;;;;;;;21.27;11.45;;;26.10;1715.20;;;;;;4973728;28;20035;-71
2021/03/11 00:47:07;;;;;;;20.52;12.32;;;26.00;1715.20;;;;;;4973188;28;20027;-71
2021/03/11 00:49:35;;;;;;;20.27;11.77;;;26.00;1715.20;;;;;;4981385;28;20029;-70
2021/03/11 00:52:01;;;;;;;21.48;11.00;;;25.90;1740.80;;;;;;4976917;28;20109;-71
2021/03/11 00:54:28;;;;;;;21.20;12.88;;;25.90;1715.20;;;;;;4973568;28;20033;-70
2021/03/11 00:56:54;;;;;;;21.10;12.85;;;25.80;1766.40;;;;;;4967876;28;20055;-71
2021/03/11 00:59:20;;;;;;;27.08;15.07;;;25.70;1792.00;;;;;;4974631;28;20457;-72
2021/03/11 01:01:46;;;;;;;30.10;16.15;;;25.70;1766.40;;;;;;4969666;28;20071;-71
2021/03/11 01:04:12;;;;;;;25.48;14.57;;;25.70;1740.80;;;;;;4970683;28;20084;-71
2021/03/11 01:06:38;;;;;;;25.33;14.75;;;25.60;1766.40;;;;;;4981728;28;20467;-71
2021/03/11 01:09:04;;;;;;;27.13;14.70;;;25.60;1792.00;;;;;;4968209;28;20469;-71
2021/03/11 01:11:31;;;;;;;30.52;15.52;;;25.60;1817.60;;;;;;4973586;28;20122;-72
2021/03/11 01:13:57;;;;;;;24.15;14.32;;;25.60;1843.20;;;;;;4971328;28;20022;-71
2021/03/11 01:16:23;;;;;;;26.15;14.35;;;25.60;1817.60;;;;;;4968029;28;20031;-72
2021/03/11 01:18:49;;;;;;;28.33;14.52;;;25.60;1817.60;;;;;;4963872;28;20019;-71
2021/03/11 01:21:15;;;;;;;25.55;14.43;;;0.90;1792.00;;;;;;4970896;28;20057;-72
2021/03/11 01:23:41;;;;;;;22.58;13.52;;;0.90;1843.20;;;;;;4972000;28;20101;-72
2021/03/11 01:26:06;;;;;;;23.65;14.32;;;0.90;1817.60;;;;;;4971431;28;20150;-70
2021/03/11 01:28:32;;;;;;;23.27;13.85;;;0.80;1868.80;;;;;;4974507;28;20027;-71
2021/03/11 01:30:58;;;;;;;23.63;13.73;;;0.80;1868.80;;;;;;4971719;28;20023;-70
2021/03/11 01:33:23;;;;;;;27.90;15.35;;;0.80;1817.60;;;;;;4988268;28;20035;-71
2021/03/11 01:35:50;;;;;;;23.67;13.90;;;0.80;1792.00;;;;;;4971329;28;20054;-72
2021/03/11 01:38:16;;;;;;;30.17;16.83;;;0.80;1817.60;;;;;;4972627;28;20043;-71
2021/03/11 01:40:42;;;;;;;24.80;15.15;;;25.60;1843.20;;;;;;4972872;28;20045;-72
2021/03/11 01:43:07;;;;;;;26.48;15.88;;;0.90;2048.00;;;;;;4973184;28;20027;-71
2021/03/11 01:45:33;;;;;;;26.83;16.00;;;0.70;1868.80;;;;;;4970596;28;20035;-71
2021/03/11 01:47:59;;;;;;;28.10;15.73;;;0.70;1868.80;;;;;;4971589;28;20029;-72
2021/03/11 01:50:25;;;;;;;29.00;15.98;;;0.60;1920.00;;;;;;4985288;28;20022;-71
2021/03/11 01:52:51;;;;;;;34.38;18.65;;;0.50;1920.00;;;;;;4971644;28;20050;-72
2021/03/11 01:55:17;;;;;;;47.47;23.45;;;0.50;1920.00;;;;;;4972728;28;20046;-71
2021/03/11 01:57:46;;;;;;;34.65;18.05;;;0.50;1894.40;;;;;;4972433;28;20030;-70
2021/03/11 02:00:13;;;;;;;32.90;19.23;;;0.50;1868.80;;;;;;4973386;28;20038;-71
2021/03/11 02:02:43;;;;;;;27.45;17.02;;;0.50;1868.80;;;;;;4965466;28;20025;-72
2021/03/11 02:05:19;;;;;;;26.85;16.60;;;0.50;1868.80;;;;;;4973417;28;20035;-72
2021/03/11 02:07:46;;;;;;;26.25;15.57;;;0.50;1868.80;;;;;;4966142;28;20038;-71
2021/03/11 02:10:19;;;;;;;25.90;16.42;;;0.60;1894.40;;;;;;4978571;28;20074;-72
2021/03/11 02:13:10;;;;;;;20.85;14.32;;;0.60;1894.40;;;;;;4973065;28;20077;-71
2021/03/11 02:15:45;;;;;;;24.00;14.18;;;0.60;1843.20;;;;;;4972326;28;20461;-72
2021/03/11 02:18:31;;;;;;;22.27;13.88;;;0.60;1868.80;;;;;;4968629;28;20019;-72
2021/03/11 02:21:12;;;;;;;21.08;13.20;;;0.60;1868.80;;;;;;4968508;28;20066;-72
2021/03/11 02:24:19;;;;;;;26.52;14.20;;;0.60;1868.80;;;;;;4973022;28;20157;-71
2021/03/11 02:26:57;;;;;;;21.35;12.75;;;0.50;1868.80;;;;;;4965214;28;20057;-71
2021/03/11 02:29:36;;;;;;;22.90;13.60;;;0.50;1868.80;;;;;;4973799;28;20058;-71
2021/03/11 02:32:05;;;;;;;21.42;13.48;;;0.50;1868.80;;;;;;4978630;28;20035;-71
2021/03/11 02:34:44;;;;;;;21.95;13.45;;;0.50;1868.80;;;;;;4963181;28;20018;-72
2021/03/11 02:37:26;;;;;;;19.08;12.98;;;0.50;1868.80;;;;;;4972779;28;20055;-71
2021/03/11 02:40:08;;;;;;;23.35;13.07;;;0.50;1868.80;;;;;;4970047;28;20050;-71
2021/03/11 02:42:35;;;;;;;20.85;13.35;;;0.50;1868.80;;;;;;4978331;28;20037;-70
2021/03/11 02:45:05;;;;;;;22.30;13.40;;;0.30;1894.40;;;;;;4977404;28;20111;-71
2021/03/11 02:47:32;;;;;;;22.88;13.40;;;;;;;;;;4983450;28;20022;-72
2021/03/11 02:49:59;;;;;;;26.38;14.85;;;;;;;;;;4976136;28;20113;-72
2021/03/11 02:52:26;;;;;;;25.92;15.23;;;;;;;;;;4976201;28;20051;-71
2021/03/11 02:54:53;;;;;;;24.55;15.90;;;;;;;;;;4976400;28;20058;-71
2021/03/11 02:57:19;;;;;;;25.67;15.00;;;;;;;;;;4980866;28;20035;-71
2021/03/11 02:59:46;;;;;;;25.45;15.70;;;;;;;;;;4978576;28;20388;-70
2021/03/11 03:02:13;;;;;;;25.48;16.00;;;;;;;;;;4972707;28;20034;-71
2021/03/11 03:04:39;;;;;;;25.88;15.73;;;;;;;;;;4975503;28;20034;-71
2021/03/11 03:07:07;;;;;;;25.25;15.27;;;;;;;;;;4964639;28;20404;-71
2021/03/11 03:09:34;;;;;;;25.02;16.05;;;;;;;;;;4982476;28;20033;-71
2021/03/11 03:12:00;;;;;;;24.73;15.73;;;;;;;;;;4974883;28;20054;-72
2021/03/11 03:14:26;;;;;;;22.45;14.77;;;0.20;1971.20;;;;;;4976318;28;20042;-71
2021/03/11 03:16:53;;;;;;;25.73;15.02;;;0.00;1996.80;;;;;;4969028;28;20034;-71
2021/03/11 03:19:19;;;;;;;21.75;15.00;;;0.00;1971.20;;;;;;4974820;28;20030;-71
2021/03/11 03:21:47;;;;;;;22.02;14.63;;;0.00;1971.20;;;;;;4970995;28;20089;-70
2021/03/11 03:24:16;;;;;;;24.70;15.35;;;0.00;1971.20;;;;;;4971165;28;20027;-72
2021/03/11 03:26:42;;;;;;;24.20;15.30;;;0.00;1996.80;;;;;;4975332;28;20477;-71
2021/03/11 03:29:08;;;;;;;24.85;15.85;;;0.00;1996.80;;;;;;4976100;28;20039;-71
2021/03/11 03:31:34;;;;;;;25.35;16.90;;;12.90;1971.20;;;;;;4981382;28;20059;-70
2021/03/11 03:34:00;;;;;;;27.08;16.10;;;;;;;;;;4971308;28;20136;-71
2021/03/11 03:36:26;;;;;;;28.20;16.63;;;;;;;;;;4974252;28;20058;-71
2021/03/11 03:38:54;;;;;;;28.85;16.48;;;;;;;;;;4975946;28;20088;-71
2021/03/11 03:41:20;;;;;;;28.70;17.52;;;;;;;;;;4974836;28;20056;-72
2021/03/11 03:43:47;;;;;;;31.67;17.77;;;;;;;;;;4974443;28;20070;-72
2021/03/11 03:46:14;;;;;;;25.98;16.88;;;;;;;;;;4976907;28;20468;-72
2021/03/11 03:48:43;;;;;;;30.83;18.15;;;;;;;;;;4975052;28;20608;-72
2021/03/11 03:51:09;;;;;;;31.23;18.52;;;;;;;;;;4966836;28;20042;-72
2021/03/11 03:53:39;;;;;;;28.40;17.85;;;;;;;;;;4966443;28;20054;-71
2021/03/11 03:56:08;;;;;;;30.10;17.60;;;;;;;;;;4966740;28;20023;-71
2021/03/11 03:58:34;;;;;;;32.25;18.08;;;;;;;;;;4978424;28;20030;-71
2021/03/11 04:01:01;;;;;;;31.80;17.38;;;;;;;;;;4970186;28;20085;-75
2021/03/11 04:03:27;;;;;;;29.27;17.65;;;;;;;;;;4970003;28;20055;-71
2021/03/11 04:05:56;;;;;;;35.45;19.10;;;;;;;;;;4974890;28;20539;-70
2021/03/11 04:08:26;;;;;;;33.35;21.33;;;;;;;;;;4974270;28;20476;-72
2021/03/11 04:10:53;;;;;;;29.23;19.15;;;;;;;;;;4975782;28;20058;-71
2021/03/11 04:13:20;;;;;;;35.35;19.88;;;;;;;;;;4973383;28;20053;-72
2021/03/11 04:15:46;;;;;;;30.33;20.75;;;;;;;;;;4965664;28;20038;-71
2021/03/11 04:18:13;;;;;;;37.80;21.15;;;;;;;;;;4982345;28;20030;-71
2021/03/11 04:20:39;;;;;;;43.03;21.52;;;;;;;;;;4976267;28;20086;-72
2021/03/11 04:23:06;;;;;;;33.03;20.25;;;;;;;;;;4973878;28;20030;-71
2021/03/11 04:25:32;;;;;;;31.65;19.58;;;;;;;;;;4973719;28;20504;-72
2021/03/11 04:27:58;;;;;;;30.63;17.20;;;;;;;;;;4975550;28;20142;-72
2021/03/11 04:30:24;;;;;;;28.33;17.45;;;;;;;;;;4982852;28;20022;-71
2021/03/11 04:32:51;;;;;;;31.00;18.35;;;;;;;;;;4964124;28;20042;-75
2021/03/11 04:35:17;;;;;;;31.92;18.15;;;;;;;;;;4972142;28;20809;-73
2021/03/11 04:37:44;;;;;;;27.65;16.95;;;;;;;;;;4972080;28;20031;-73
2021/03/11 04:40:10;;;;;;;28.17;17.27;;;;;;;;;;4972076;28;20194;-72
2021/03/11 04:42:37;;;;;;;29.80;17.55;;;;;;;;;;4966708;28;20023;-72
2021/03/11 04:45:04;;;;;;;29.67;17.60;;;;;;;;;;4972590;28;20034;-74
2021/03/11 04:47:30;;;;;;;29.80;18.60;;;;;;;;;;4971309;28;20023;-74
2021/03/11 04:49:57;;;;;;;36.25;18.90;;;;;;;;;;4970677;28;20031;-73
2021/03/11 04:52:23;;;;;;;33.58;18.13;;;;;;;;;;4972083;28;20082;-72
2021/03/11 04:54:49;;;;;;;31.25;19.13;;;;;;;;;;4971914;28;20035;-72
2021/03/11 04:57:15;;;;;;;35.30;19.70;;;;;;;;;;4973360;28;20030;-72
2021/03/11 04:59:41;;;;;;;30.80;20.05;;;;;;;;;;4973504;28;20042;-72
2021/03/11 05:02:10;;;;;;;30.17;19.83;;;;;;;;;;4973655;28;20034;-73
2021/03/11 05:04:37;;;;;;;33.42;20.95;;;;;;;;;;4969151;28;21465;-73
2021/03/11 05:07:03;;;;;;;30.83;18.77;;;;;;;;;;4972687;28;20027;-71
2021/03/11 05:09:29;;;;;;;30.65;18.45;;;;;;;;;;4971886;28;20081;-73
2021/03/11 05:11:55;;;;;;;27.98;18.50;;;;;;;;;;4973277;28;20027;-74
2021/03/11 05:14:21;;;;;;;32.35;18.77;;;;;;;;;;4973573;28;20023;-74
2021/03/11 05:16:47;;;;;;;35.35;19.23;;;;;;;;;;4973137;28;20500;-73
2021/03/11 05:19:13;;;;;;;35.58;19.48;;;;;;;;;;4971730;28;20504;-73
2021/03/11 05:21:39;;;;;;;27.63;18.45;;;;;;;;;;4973593;28;20515;-72
2021/03/11 05:24:06;;;;;;;31.35;18.30;;;;;;;;;;4971985;28;20096;-73
2021/03/11 05:26:32;;;;;;;36.15;21.08;;;;;;;;;;4972847;28;20515;-73
2021/03/11 05:28:58;;;;;;;32.28;19.63;;;;;;;;;;4971412;28;20031;-73
2021/03/11 05:31:25;;;;;;;45.25;23.00;;;;;;;;;;4971404;28;20070;-72
2021/03/11 05:33:51;;;;;;;57.53;27.30;;;;;;;;;;4973063;28;20039;-73
2021/03/11 05:36:17;;;;;;;63.90;31.45;;;;;;;;;;4971952;28;20026;-72
2021/03/11 05:38:44;;;;;;;55.10;26.40;;;;;;;;;;4972407;28;20022;-73
2021/03/11 05:41:10;;;;;;;84.15;42.50;;;;;;;;;;4971857;28;20075;-71
2021/03/11 05:43:38;;;;;;;92.15;44.35;;;;;;;;;;4972379;28;20400;-71
2021/03/11 05:46:04;;;;;;;60.40;33.40;;;;;;;;;;4972288;28;20058;-73
2021/03/11 05:48:33;;;;;;;65.45;36.72;;;;;;;;;;4972509;28;20027;-71
2021/03/11 05:50:59;;;;;;;68.00;34.47;;;;;;;;;;4974668;28;20456;-74
2021/03/11 05:53:25;;;;;;;58.63;32.33;;;;;;;;;;4970813;28;20050;-69
2021/03/11 05:55:51;;;;;;;66.78;32.90;;;;;;;;;;4973872;28;20110;-69
2021/03/11 05:58:19;;;;;;;75.45;34.28;;;;;;;;;;4972208;28;20038;-73
2021/03/11 06:00:45;;;;;;;52.20;31.75;;;;;;;;;;4976276;28;20041;-73
2021/03/11 06:03:11;;;;;;;85.90;36.28;;;;;;;;;;4972588;28;20037;-73
2021/03/11 06:05:37;;;;;;;180.43;68.47;;;;;;;;;;4975405;28;20110;-79
2021/03/11 06:08:06;;;;;;;137.10;58.60;;;;;;;;;;4976789;28;20369;-76
2021/03/11 06:10:32;;;;;;;128.38;51.85;;;128.40;1638.40;;;;;;4975248;28;20030;-72
2021/03/11 06:12:58;;;;;;;119.85;52.17;;;128.50;1612.80;;;;;;4977207;28;20026;-78
2021/03/11 06:15:30;;;;;;;89.75;44.22;;;153.90;1561.60;;;;;;4975421;28;20035;-84
2021/03/11 06:17:58;;;;;;;61.50;34.47;;;179.60;1459.20;;;;;;4978246;28;20026;-69
2021/03/11 06:20:24;;;;;;;57.03;32.78;;;205.10;1382.40;;;;;;4982578;28;20039;-77
2021/03/11 06:22:52;;;;;;;78.40;38.03;;;230.80;1331.20;;;;;;4972929;28;20031;-74
2021/03/11 06:25:19;;;;;;;65.38;36.75;;;256.20;1177.60;;;;;;4975295;28;20125;-72
2021/03/11 06:27:45;;;;;;;68.63;40.42;;;256.50;1100.80;;;;;;4972406;28;20023;-72
2021/03/11 06:30:29;;;;;;;58.22;38.92;;;;;;;;;;4968540;28;20033;-72
2021/03/11 06:32:55;;;;;;;65.90;38.80;;;;;;;;;;4976762;28;20045;-72
2021/03/11 06:35:21;;;;;;;66.38;36.15;;;;;;;;;;4973511;28;20027;-73
2021/03/11 06:37:48;;;;;;;57.08;38.70;;;;;;;;;;4975529;28;20097;-72
2021/03/11 06:40:16;;;;;;;63.40;39.05;;;;;;;;;;4975764;28;20033;-76
2021/03/11 06:42:43;;;;;;;52.22;31.25;;;;;;;;;;4975178;28;20074;-66
2021/03/11 06:45:27;;;;;;;55.22;33.35;;;;;;;;;;4972552;28;20416;-65
2021/03/11 06:48:12;;;;;;;66.72;34.08;;;;;;;;;;4970147;28;20481;-67
2021/03/11 06:50:38;;;;;;;56.60;31.88;;;;;;;;;;4969788;28;20023;-68
2021/03/11 06:53:05;;;;;;;57.45;32.25;;;;;;;;;;4978520;28;20133;-72
2021/03/11 06:55:31;;;;;;;54.67;27.45;;;;;;;;;;4974952;28;20023;-67
2021/03/11 06:58:17;;;;;;;45.15;24.85;;;;;;;;;;4973702;28;20019;-71
2021/03/11 07:00:43;;;;;;;45.33;23.55;;;;;;;;;;4968019;28;20039;-76
2021/03/11 07:03:09;;;;;;;210.18;159.65;;;;;;;;;;4981814;28;20027;-67
2021/03/11 07:05:40;;;;;;;44.65;25.77;;;;;;;;;;4964389;28;20401;-67
2021/03/11 07:08:07;;;;;;;38.97;23.42;;;;;;;;;;4972375;28;20088;-69
2021/03/11 07:10:34;;;;;;;33.85;22.45;;;;;;;;;;4973399;28;20408;-70
2021/03/11 07:13:01;;;;;;;35.03;22.73;;;;;;;;;;4974995;28;20015;-67
2021/03/11 07:15:29;;;;;;;37.13;22.58;;;;;;;;;;4975543;28;20072;-68
2021/03/11 07:17:55;;;;;;;35.55;22.75;;;;;;;;;;4973984;28;20031;-71
2021/03/11 07:20:22;;;;;;;32.75;21.10;;;;;;;;;;4973049;28;20031;-66
2021/03/11 07:23:20;;;;;;;32.78;21.98;;;;;;;;;;4974002;28;20038;-69
2021/03/11 07:25:46;;;;;;;38.33;22.23;;;;;;;;;;4930465;29;20071;-73
2021/03/11 07:28:22;;;;;;;34.85;22.05;;;;;;;;;;4931315;29;20128;-71
2021/03/11 07:30:58;;;;;;;30.67;21.00;;;;;;;;;;4933723;29;20046;-67
2021/03/11 07:33:25;;;;;;;31.33;21.65;;;;;;;;;;4932980;29;20102;-76
2021/03/11 07:35:55;;;;;;;28.65;21.20;;;;;;;;;;4929992;29;20118;-72
2021/03/11 07:38:23;;;;;;;30.40;21.52;;;;;;;;;;4914549;29;20107;-67
2021/03/11 07:40:50;;;;;;;32.15;21.92;;;;;;;;;;4927836;29;20032;-74
2021/03/11 07:43:19;;;;;;;35.80;21.85;;;;;;;;;;4929591;29;20071;-68
2021/03/11 07:45:45;;;;;;;28.00;21.00;;;;;;;;;;4929300;29;20084;-69
2021/03/11 07:48:12;;;;;;;28.35;22.17;;;;;;;;;;4925120;29;20027;-68
2021/03/11 07:50:41;;;;;;;29.13;22.25;;;;;;;;;;4927829;29;20020;-68
2021/03/11 07:53:07;;;;;;;30.90;22.38;;;;;;;;;;4921016;29;20445;-67
2021/03/11 07:55:33;;;;;;;31.65;22.35;;;;;;;;;;4934112;29;20043;-66
2021/03/11 07:58:02;;;;;;;32.42;22.38;;;;;;;;;;4926480;29;20028;-69
2021/03/11 08:00:29;;;;;;;33.80;23.98;;;;;;;;;;4927057;29;20511;-69
2021/03/11 08:03:06;;;;;;;31.65;23.65;;;;;;;;;;4963762;28;20035;-69
2021/03/11 08:05:32;;;;;;;36.72;23.67;;;;;;;;;;4963285;28;20026;-70
2021/03/11 08:08:15;;;;;;;35.65;22.92;;;461.60;691.20;;;;;;4970454;28;20090;-68
2021/03/11 08:10:54;;;;;;;35.97;23.17;;;486.40;691.20;;;;;;4967338;28;20159;-70
2021/03/11 08:13:29;;;;;;;32.83;23.05;;;486.60;665.60;;;;;;4970249;28;20023;-68
2021/03/11 08:15:56;;;;;;;36.80;23.65;;;486.40;665.60;;;;;;4973829;28;20025;-74
2021/03/11 08:18:34;;;;;;;33.03;23.05;;;461.30;691.20;;;;;;4974183;28;20507;-69
2021/03/11 08:21:25;;;;;;;29.88;22.08;;;461.00;691.20;;;;;;4972188;28;20049;-68
2021/03/11 08:23:52;;;;;;;31.88;22.45;;;461.20;691.20;;;;;;4956906;28;20489;-73
2021/03/11 08:26:50;;;;;;;34.85;21.08;;;461.20;691.20;;;;;;4970181;28;20042;-69
2021/03/11 08:29:17;;;;;;;32.45;22.80;;;461.30;665.60;;;;;;4937021;29;20043;-68
2021/03/11 08:31:43;;;;;;;31.23;21.63;;;461.00;691.20;;;;;;4937093;28;20122;-72
2021/03/11 08:34:29;;;;;;;29.65;22.58;;;460.90;665.60;;;;;;4938551;29;20032;-68
2021/03/11 08:37:16;;;;;;;32.28;23.38;;;460.80;665.60;;;;;;4933902;29;20505;-71
2021/03/11 08:39:42;;;;;;;33.50;21.33;;;461.20;665.60;;;;;;4931913;29;20251;-73
2021/03/11 08:42:41;;;;;;;31.10;22.10;;;460.80;665.60;;;;;;4931164;29;20111;-68
2021/03/11 08:45:08;;;;;;;35.25;21.17;;;436.00;640.00;;;;;;4931957;29;20044;-70
2021/03/11 08:47:33;;;;;;;29.52;18.33;;;460.90;614.40;;;;;;4935959;29;20541;-75
2021/03/11 08:49:59;;;;;;;28.08;20.42;;;435.90;614.40;;;;;;4915021;29;20043;-68
2021/03/11 08:52:44;;;;;;;31.55;18.08;;;435.90;614.40;;;;;;4934062;29;20493;-76
2021/03/11 08:55:32;;;;;;;26.50;17.92;;;435.50;614.40;;;;;;4915430;29;20122;-68
2021/03/11 08:57:59;;;;;;;27.40;19.10;;;410.40;614.40;;;;;;4930625;29;20067;-67
2021/03/11 09:00:55;;;;;;;32.42;18.65;;;409.80;640.00;;;;;;4933250;29;20106;-72
2021/03/11 09:03:44;;;;;;;27.33;18.08;;;384.90;640.00;;;;;;4931067;29;20375;-69
2021/03/11 09:06:12;;;;;;;22.55;15.45;;;358.80;691.20;;;;;;4971684;28;20031;-68
2021/03/11 09:08:47;;;;;;;23.38;16.00;;;333.70;691.20;;;;;;4972050;28;20029;-67
2021/03/11 09:11:15;;;;;;;31.25;20.25;;;333.20;691.20;;;;;;4961332;28;20027;-66
2021/03/11 09:13:45;;;;;;;28.92;17.45;;;;;;;;;;4969349;28;20019;-67
2021/03/11 09:16:11;;;;;;;27.33;18.67;;;307.60;742.40;;;;;;4969650;28;20031;-70
2021/03/11 09:18:37;;;;;;;29.42;16.75;;;282.50;768.00;;;;;;4967032;28;20400;-74
2021/03/11 09:21:05;;;;;;;54.22;17.85;;;282.30;768.00;;;;;;4972731;28;20122;-71
2021/03/11 09:23:34;;;;;;;23.58;15.20;;;281.90;793.60;;;;;;4971441;28;20090;-71
2021/03/11 09:26:00;;;;;;;24.23;15.48;;;281.80;819.20;;;;;;4972304;28;20038;-70
2021/03/11 09:28:26;;;;;;;22.92;15.35;;;256.80;793.60;;;;;;4975022;28;20027;-69
2021/03/11 09:30:52;;;;;;;27.58;15.55;;;256.70;793.60;;;;;;4971173;28;20030;-70
2021/03/11 09:33:20;;;;;;;23.08;15.43;;;256.80;793.60;;;;;;4972770;28;20027;-67
2021/03/11 09:35:47;;;;;;;22.77;15.70;;;256.60;793.60;;;;;;4975101;28;20105;-70
2021/03/11 09:38:25;;;;;;;22.75;16.00;;;256.60;793.60;;;;;;4979798;28;20033;-69
2021/03/11 09:40:53;;;;;;;20.15;14.25;;;256.50;819.20;;;;;;4972132;28;20046;-67
2021/03/11 09:43:25;;;;;;;18.27;12.65;;;256.40;793.60;;;;;;4975638;28;20484;-71
2021/03/11 09:46:15;;;;;;;22.20;13.48;;;256.30;742.40;;;;;;4974182;28;20026;-69
2021/03/11 09:48:50;;;;;;;17.23;12.68;;;256.40;793.60;;;;;;4975321;28;20015;-69
2021/03/11 09:51:32;;;;;;;22.33;14.07;;;256.20;844.80;;;;;;4974383;28;20031;-70
2021/03/11 09:54:06;;;;;;;18.40;13.27;;;256.20;896.00;;;;;;4977433;28;20112;-70
2021/03/11 09:56:40;;;;;;;18.63;13.63;;;256.20;1177.60;;;;;;4979951;28;20030;-70
2021/03/11 09:59:08;;;;;;;20.02;13.82;;;256.10;844.80;;;;;;4971733;28;20030;-70
2021/03/11 10:01:34;;;;;;;22.17;13.85;;;256.10;793.60;;;;;;4973038;28;20037;-79
2021/03/11 10:04:02;;;;;;;22.45;13.65;;;256.10;819.20;;;;;;4969205;28;20022;-71
2021/03/11 10:06:29;;;;;;;26.73;17.50;;;256.10;819.20;;;;;;4973299;28;20165;-74
2021/03/11 10:08:57;;;;;;;18.00;12.88;;;256.20;819.20;;;;;;4978627;28;20050;-71
2021/03/11 10:11:33;;;;;;;19.38;13.20;;;256.20;819.20;;;;;;4979876;28;20511;-76
2021/03/11 10:14:02;;;;;;;19.10;13.63;;;256.10;793.60;;;;;;4978481;28;20373;-73
2021/03/11 10:16:31;;;;;;;21.90;13.50;;;231.00;793.60;;;;;;4975855;28;20019;-74
2021/03/11 10:19:01;;;;;;;21.80;13.60;;;256.10;819.20;;;;;;4970201;28;20039;-74
2021/03/11 10:21:27;;;;;;;18.90;13.73;;;256.10;793.60;;;;;;4973687;28;20046;-65
2021/03/11 10:23:53;;;;;;;19.05;12.88;;;256.00;768.00;;;;;;4981713;28;20028;-66
2021/03/11 10:26:25;;;;;;;20.23;13.18;;;231.30;947.20;;;;;;4981757;28;20377;-66
2021/03/11 10:29:00;;;;;;;22.88;13.48;;;231.30;998.40;;;;;;4971850;28;20018;-68
2021/03/11 10:31:26;;;;;;;21.88;14.15;;;231.30;793.60;;;;;;4974428;28;20069;-67
2021/03/11 10:34:06;;;;;;;20.75;13.25;;;231.30;793.60;;;;;;4980804;28;20022;-66
2021/03/11 10:36:33;;;;;;;32.17;15.10;;;256.00;819.20;;;;;;4984922;28;20038;-68
2021/03/11 10:39:11;;;;;;;24.65;16.33;;;256.00;793.60;;;;;;4974270;28;20023;-67
2021/03/11 10:42:00;;;;;;;30.70;18.98;;;256.10;768.00;;;;;;4974369;28;20049;-67
2021/03/11 10:44:27;;;;;;;22.13;14.88;;;256.10;793.60;;;;;;4967832;28;20039;-69
2021/03/11 10:46:52;;;;;;;24.02;14.90;;;256.20;793.60;;;;;;4973948;28;20034;-68
2021/03/11 10:49:34;;;;;;;20.33;13.65;;;256.20;793.60;;;;;;4973409;28;20019;-73
2021/03/11 10:52:00;;;;;;;21.92;13.98;;;256.30;793.60;;;;;;4974101;28;20063;-70
2021/03/11 10:54:27;;;;;;;24.15;13.68;;;256.30;768.00;;;;;;4972824;28;20125;-71
2021/03/11 10:57:05;;;;;;;20.17;14.75;;;256.30;768.00;;;;;;4985985;28;20438;-68
2021/03/11 10:59:45;;;;;;;20.20;13.50;;;256.20;793.60;;;;;;4982156;28;20082;-71
2021/03/11 11:02:13;;;;;;;22.15;14.38;;;256.20;793.60;;;;;;4972187;28;20109;-69
2021/03/11 11:04:40;;;;;;;21.50;15.57;;;256.20;793.60;;;;;;4966307;28;20031;-77
2021/03/11 11:07:12;;;;;;;26.40;18.70;;;256.30;793.60;;;;;;4973501;28;20023;-69
2021/03/11 11:09:39;;;;;;;26.15;16.45;;;256.20;768.00;;;;;;4978196;28;20460;-69
2021/03/11 11:12:08;;;;;;;24.17;14.00;;;256.30;793.60;;;;;;4970448;28;20050;-70
2021/03/11 11:14:35;;;;;;;21.90;14.15;;;256.30;793.60;;;;;;4965377;28;20038;-70
2021/03/11 11:17:00;;;;;;;21.58;15.25;;;256.40;793.60;;;;;;4963490;28;20088;-79
2021/03/11 11:19:26;;;;;;;27.08;17.85;;;256.40;768.00;;;;;;4967424;28;20023;-69
2021/03/11 11:21:52;;;;;;;37.38;20.83;;;256.30;793.60;;;;;;4958537;28;20051;-83
2021/03/11 11:24:18;;;;;;;23.98;17.17;;;256.40;793.60;;;;;;4962652;28;20030;-81
2021/03/11 11:26:44;;;;;;;25.83;16.92;;;256.40;793.60;;;;;;4959509;28;20137;-83
2021/03/11 11:29:10;;;;;;;24.42;16.85;;;256.40;793.60;;;;;;4956501;28;20023;-70
2021/03/11 11:31:35;;;;;;;25.75;17.05;;;256.30;793.60;;;;;;4961996;28;20031;-67
2021/03/11 11:34:01;;;;;;;24.98;16.38;;;256.40;819.20;;;;;;4974460;28;20054;-69
2021/03/11 11:36:27;;;;;;;46.55;17.05;;;256.50;793.60;;;;;;4985001;28;20088;-67
2021/03/11 11:38:53;;;;;;;25.17;15.88;;;256.30;793.60;;;;;;4981328;28;20031;-67
2021/03/11 11:41:19;;;;;;;23.00;17.20;;;256.40;793.60;;;;;;4977145;28;20053;-67
2021/03/11 11:43:45;;;;;;;33.65;17.45;;;256.40;793.60;;;;;;4982652;28;20485;-66
2021/03/11 11:46:11;;;;;;;27.40;17.27;;;256.40;793.60;;;;;;4972578;28;20038;-68
2021/03/11 11:48:37;;;;;;;23.80;17.88;;;256.50;793.60;;;;;;4962356;28;20093;-67
2021/03/11 11:51:04;;;;;;;26.70;18.90;;;256.50;793.60;;;;;;4973163;28;20034;-67
2021/03/11 11:53:30;;;;;;;23.80;17.17;;;256.60;793.60;;;;;;4972754;28;20043;-67
2021/03/11 11:55:56;;;;;;;26.52;16.42;;;256.70;793.60;;;;;;4973719;28;20089;-67
2021/03/11 11:58:22;;;;;;;23.38;16.65;;;256.80;793.60;;;;;;4973509;28;20027;-72
2021/03/11 12:00:48;;;;;;;26.45;19.88;;;256.80;793.60;;;;;;4972280;28;20477;-74
2021/03/11 12:03:14;;;;;;;24.15;16.70;;;256.70;793.60;;;;;;4973565;28;20094;-70
2021/03/11 12:05:40;;;;;;;25.15;15.75;;;256.70;793.60;;;;;;4969510;28;20055;-70
2021/03/11 12:08:06;;;;;;;23.38;16.15;;;256.70;793.60;;;;;;4976538;28;20058;-71
2021/03/11 12:10:31;;;;;;;27.90;17.10;;;256.60;819.20;;;;;;4975877;28;20091;-71
2021/03/11 12:12:57;;;;;;;26.40;17.48;;;256.50;819.20;;;;;;4968138;28;20059;-70
2021/03/11 12:15:23;;;;;;;26.50;15.93;;;256.50;819.20;;;;;;4976412;28;20054;-71
2021/03/11 12:17:49;;;;;;;26.95;17.77;;;256.50;793.60;;;;;;4969064;28;20031;-71
2021/03/11 12:20:15;;;;;;;36.70;17.77;;;256.40;844.80;;;;;;4987957;28;20050;-72
2021/03/11 12:22:41;;;;;;;25.38;16.52;;;256.40;844.80;;;;;;4970777;28;20469;-73
2021/03/11 12:25:07;;;;;;;32.25;18.42;;;256.50;844.80;;;;;;4984390;28;20053;-73
2021/03/11 12:27:33;;;;;;;26.58;18.83;;;256.50;844.80;;;;;;4978077;28;20081;-73
2021/03/11 12:29:59;;;;;;;25.27;16.63;;;256.40;844.80;;;;;;4968237;28;20094;-73
2021/03/11 12:32:25;;;;;;;23.95;16.45;;;256.40;819.20;;;;;;5002800;28;20053;-71
2021/03/11 12:34:51;;;;;;;29.50;18.40;;;256.40;819.20;;;;;;4978391;28;20033;-70
2021/03/11 12:37:17;;;;;;;23.98;16.55;;;256.70;844.80;;;;;;4968977;28;20035;-70
2021/03/11 12:39:43;;;;;;;23.55;16.08;;;256.50;844.80;;;;;;4970875;28;20038;-76
2021/03/11 12:42:09;;;;;;;25.27;16.73;;;256.60;844.80;;;;;;4967259;28;20023;-76
2021/03/11 12:44:35;;;;;;;25.40;16.08;;;256.60;844.80;;;;;;4960496;28;20038;-77
2021/03/11 12:47:01;;;;;;;25.38;17.27;;;256.70;844.80;;;;;;4963866;28;20035;-70
2021/03/11 12:49:27;;;;;;;24.45;16.70;;;256.70;844.80;;;;;;4962099;28;20034;-78
2021/03/11 12:51:53;;;;;;;22.25;16.50;;;256.50;844.80;;;;;;4959632;28;20047;-72
2021/03/11 12:54:19;;;;;;;22.45;15.77;;;256.90;844.80;;;;;;4963122;28;20093;-74
2021/03/11 12:56:44;;;;;;;25.00;16.35;;;256.90;844.80;;;;;;4961266;28;20023;-76
2021/03/11 12:59:10;;;;;;;23.02;16.05;;;256.80;844.80;;;;;;4958401;28;20559;-78